createdAt,value
2019-03-20T00:01:08.014Z,3.50
2019-03-20T00:06:09.787Z,3.29
2019-03-20T00:11:12.244Z,3.19
2019-03-20T00:16:14.694Z,3.44
2019-03-20T00:21:17.148Z,3.17
2019-03-20T00:26:19.616Z,3.31
2019-03-20T00:31:22.074Z,3.26
2019-03-20T00:36:24.542Z,3.42
2019-03-20T00:41:27.000Z,3.06
2019-03-20T00:46:29.471Z,3.24
2019-03-20T00:51:31.920Z,3.36
2019-03-20T00:56:34.396Z,3.17
2019-03-20T01:01:36.849Z,3.09
2019-03-20T01:06:39.303Z,3.08
2019-03-20T01:11:41.777Z,3.16
2019-03-20T01:16:44.225Z,3.24
2019-03-20T01:21:46.790Z,2.87
2019-03-20T01:26:49.270Z,2.61
2019-03-20T01:31:51.798Z,2.61
2019-03-20T01:36:54.260Z,2.75
2019-03-20T01:41:56.728Z,2.64
2019-03-20T01:46:59.207Z,2.77
2019-03-20T01:52:01.654Z,2.68
2019-03-20T01:57:04.099Z,2.54
2019-03-20T02:02:06.560Z,2.37
2019-03-20T02:07:09.019Z,2.62
2019-03-20T02:12:11.463Z,2.61
2019-03-20T02:17:13.936Z,2.64
2019-03-20T02:22:16.403Z,2.40
2019-03-20T02:27:18.864Z,2.30
2019-03-20T02:32:21.318Z,2.59
2019-03-20T02:37:23.774Z,2.44
2019-03-20T02:42:26.268Z,2.38
2019-03-20T02:47:28.719Z,2.36
2019-03-20T02:52:31.184Z,2.29
2019-03-20T02:57:33.649Z,2.38
2019-03-20T03:02:36.113Z,2.25
2019-03-20T03:07:38.623Z,2.13
2019-03-20T03:12:41.090Z,2.10
2019-03-20T03:17:43.545Z,2.09
2019-03-20T03:22:46.007Z,2.06
2019-03-20T03:27:48.462Z,1.96
2019-03-20T03:32:50.928Z,2.00
2019-03-20T03:37:53.389Z,2.06
2019-03-20T03:42:55.847Z,1.89
2019-03-20T03:47:58.337Z,1.77
2019-03-20T03:53:00.780Z,1.90
2019-03-20T03:58:03.243Z,1.83
2019-03-20T04:03:05.743Z,1.76
2019-03-20T04:08:08.206Z,1.96
2019-03-20T04:13:10.669Z,1.66
2019-03-20T04:18:13.124Z,1.73
2019-03-20T04:23:15.584Z,1.69
2019-03-20T04:28:18.032Z,1.70
2019-03-20T04:33:20.487Z,1.75
2019-03-20T04:38:22.924Z,1.81
2019-03-20T04:43:25.394Z,1.69
2019-03-20T04:48:27.845Z,1.53
2019-03-20T04:53:30.305Z,1.53
2019-03-20T04:58:32.793Z,1.58
2019-03-20T05:03:35.255Z,1.50
2019-03-20T05:08:37.711Z,1.54
2019-03-20T05:13:40.173Z,1.66
2019-03-20T05:18:42.632Z,1.72
2019-03-20T05:23:45.089Z,1.48
2019-03-20T05:28:47.553Z,1.51
2019-03-20T05:33:50.018Z,1.53
2019-03-20T05:38:52.486Z,1.58
2019-03-20T05:43:54.937Z,1.41
2019-03-20T05:48:57.398Z,1.50
2019-03-20T05:53:59.862Z,1.59
2019-03-20T05:59:02.327Z,1.75
2019-03-20T06:04:04.793Z,1.96
2019-03-20T06:09:07.244Z,2.05
2019-03-20T06:14:09.720Z,2.03
2019-03-20T06:19:12.342Z,2.22
2019-03-20T06:24:14.809Z,2.50
2019-03-20T06:29:17.272Z,2.73
2019-03-20T06:34:19.731Z,3.13
2019-03-20T06:39:22.217Z,3.07
2019-03-20T06:44:24.669Z,3.28
2019-03-20T06:49:27.125Z,3.80
2019-03-20T06:54:29.807Z,4.17
2019-03-20T06:59:35.549Z,4.69
2019-03-20T07:04:55.997Z,4.82
2019-03-20T07:10:10.333Z,5.29
2019-03-20T07:15:12.790Z,5.63
2019-03-20T07:20:16.983Z,5.97
2019-03-20T07:25:17.705Z,6.49
2019-03-20T07:30:20.161Z,6.77
2019-03-20T07:35:22.713Z,7.19
2019-03-20T07:40:25.178Z,7.63
2019-03-20T07:45:27.694Z,8.39
2019-03-20T07:50:30.172Z,9.97
2019-03-20T07:55:32.637Z,13.07
2019-03-20T08:00:35.090Z,20.62
2019-03-20T08:05:37.559Z,25.59
2019-03-20T08:10:40.190Z,29.74
2019-03-20T08:15:42.697Z,30.62
2019-03-20T08:20:45.194Z,34.06
2019-03-20T08:25:47.697Z,33.91
2019-03-20T08:30:50.114Z,36.58
2019-03-20T08:35:52.568Z,38.46
2019-03-20T08:40:55.030Z,37.92
2019-03-20T08:45:57.486Z,39.65
2019-03-20T08:50:59.981Z,40.17
2019-03-20T08:56:02.426Z,41.74
2019-03-20T09:01:04.882Z,41.14
2019-03-20T09:06:09.123Z,41.24
2019-03-20T09:11:11.593Z,42.76
2019-03-20T09:16:14.058Z,44.61
2019-03-20T09:21:16.512Z,44.55
2019-03-20T09:26:18.975Z,44.76
2019-03-20T09:31:21.425Z,45.55
2019-03-20T09:36:23.880Z,45.62
2019-03-20T09:41:26.326Z,46.55
2019-03-20T09:46:28.772Z,47.40
2019-03-20T09:51:31.225Z,46.71
2019-03-20T09:56:33.678Z,44.95
2019-03-20T10:01:36.143Z,44.79
2019-03-20T10:06:38.608Z,46.00
2019-03-20T10:11:41.141Z,45.43
2019-03-20T10:16:43.595Z,47.35
2019-03-20T10:21:46.043Z,45.50
2019-03-20T10:26:48.500Z,44.03
2019-03-20T10:31:50.967Z,42.91
2019-03-20T10:36:53.429Z,40.32
2019-03-20T10:41:55.881Z,42.55
2019-03-20T10:46:58.333Z,44.01
2019-03-20T10:52:00.805Z,42.95
2019-03-20T10:57:03.265Z,43.92
2019-03-20T11:02:05.743Z,45.38
2019-03-20T11:07:08.195Z,44.63
2019-03-20T11:12:10.652Z,42.82
2019-03-20T11:17:13.119Z,36.47
2019-03-20T11:22:19.117Z,30.06
2019-03-20T11:27:18.061Z,26.56
2019-03-20T11:32:20.512Z,24.84
2019-03-20T11:37:22.964Z,22.54
2019-03-20T11:42:25.422Z,21.02
2019-03-20T11:47:28.340Z,20.50
2019-03-20T11:52:30.856Z,20.10
2019-03-20T11:57:33.319Z,19.18
2019-03-20T12:02:35.780Z,19.09
2019-03-20T12:07:38.235Z,18.91
2019-03-20T12:12:40.680Z,18.11
2019-03-20T12:17:43.135Z,18.16
2019-03-20T12:22:45.618Z,18.29
2019-03-20T12:27:48.077Z,17.99
2019-03-20T12:32:50.614Z,18.43
2019-03-20T12:37:53.065Z,18.23
2019-03-20T12:42:55.527Z,19.96
2019-03-20T12:47:57.998Z,19.67
2019-03-20T12:53:01.934Z,18.27
2019-03-20T12:58:04.217Z,17.94
2019-03-20T13:03:05.400Z,17.68
2019-03-20T13:08:07.850Z,17.33
2019-03-20T13:13:10.486Z,17.26
2019-03-20T13:18:12.931Z,17.00
2019-03-20T13:23:21.184Z,16.88
2019-03-20T13:28:23.659Z,16.96
2019-03-20T13:33:26.406Z,16.42
2019-03-20T13:38:28.637Z,16.61
2019-03-20T13:43:31.114Z,16.63
2019-03-20T13:48:33.568Z,16.61
2019-03-20T13:53:36.020Z,16.19
2019-03-20T13:58:38.489Z,16.07
2019-03-20T14:03:40.951Z,15.90
2019-03-20T14:08:43.425Z,15.58
2019-03-20T14:13:45.906Z,15.51
2019-03-20T14:18:48.366Z,15.30
2019-03-20T14:23:50.838Z,15.12
2019-03-20T14:28:53.293Z,15.19
2019-03-20T14:33:55.755Z,14.99
2019-03-20T14:38:58.219Z,15.03
2019-03-20T14:44:00.682Z,15.06
2019-03-20T14:49:03.168Z,14.99
2019-03-20T14:54:05.634Z,14.88
2019-03-20T14:59:08.103Z,14.85
2019-03-20T15:04:10.582Z,14.78
2019-03-20T15:09:13.042Z,14.68
2019-03-20T15:14:15.508Z,14.74
2019-03-20T15:19:17.965Z,14.58
2019-03-20T15:24:20.452Z,14.52
2019-03-20T15:29:22.920Z,14.45
2019-03-20T15:34:25.370Z,14.55
2019-03-20T15:39:27.831Z,14.34
2019-03-20T15:44:30.298Z,14.18
2019-03-20T15:49:32.773Z,14.20
2019-03-20T15:54:35.226Z,14.01
2019-03-20T15:59:37.686Z,14.12
2019-03-20T16:04:40.136Z,14.10
2019-03-20T16:09:42.599Z,14.00
2019-03-20T16:14:45.060Z,13.86
2019-03-20T16:19:47.543Z,13.88
2019-03-20T16:24:50.034Z,13.77
2019-03-20T16:29:52.506Z,13.77
2019-03-20T16:34:54.976Z,13.65
2019-03-20T16:39:57.439Z,13.63
2019-03-20T16:44:59.916Z,13.58
2019-03-20T16:50:02.392Z,13.49
2019-03-20T16:55:04.867Z,13.24
2019-03-20T17:00:13.099Z,13.16
2019-03-20T17:05:15.570Z,12.98
2019-03-20T17:10:21.012Z,12.73
2019-03-20T17:15:23.475Z,12.56
2019-03-20T17:20:25.947Z,12.37
2019-03-20T17:25:28.424Z,12.26
2019-03-20T17:30:30.890Z,11.98
2019-03-20T17:35:33.375Z,11.66
2019-03-20T17:40:35.824Z,11.53
2019-03-20T17:45:38.287Z,11.41
2019-03-20T17:50:40.833Z,11.18
2019-03-20T17:55:43.405Z,10.99
2019-03-20T18:00:45.866Z,10.94
2019-03-20T18:05:48.372Z,10.64
2019-03-20T18:10:50.848Z,10.59
2019-03-20T18:15:53.323Z,10.48
2019-03-20T18:20:55.808Z,10.39
2019-03-20T18:25:58.273Z,10.33
2019-03-20T18:31:00.759Z,10.21
2019-03-20T18:36:03.237Z,10.06
2019-03-20T18:41:05.702Z,9.83
2019-03-20T18:46:08.202Z,9.71
2019-03-20T18:51:10.658Z,9.58
2019-03-20T18:56:13.155Z,9.46
2019-03-20T19:01:15.628Z,9.32
2019-03-20T19:06:18.143Z,9.19
2019-03-20T19:11:20.600Z,9.21
2019-03-20T19:16:23.192Z,9.10
2019-03-20T19:21:25.658Z,9.03
2019-03-20T19:26:28.117Z,8.80
2019-03-20T19:31:30.601Z,8.72
2019-03-20T19:36:33.089Z,8.50
2019-03-20T19:41:35.543Z,8.45
2019-03-20T19:46:38.008Z,8.31
2019-03-20T19:51:40.474Z,8.18
2019-03-20T19:56:42.955Z,8.04
2019-03-20T20:01:45.446Z,7.85
2019-03-20T20:06:47.931Z,7.89
2019-03-20T20:11:50.486Z,7.76
2019-03-20T20:16:52.966Z,7.64
2019-03-20T20:21:55.468Z,7.53
2019-03-20T20:26:57.950Z,7.55
2019-03-20T20:32:00.428Z,7.56
2019-03-20T20:37:02.909Z,7.35
2019-03-20T20:42:05.414Z,7.28
2019-03-20T20:47:07.911Z,7.28
2019-03-20T20:52:19.028Z,7.10
2019-03-20T20:57:12.854Z,7.15
2019-03-20T21:02:15.324Z,7.05
2019-03-20T21:07:17.804Z,6.79
2019-03-20T21:12:20.268Z,6.85
2019-03-20T21:17:22.780Z,6.69
2019-03-20T21:22:31.279Z,6.82
2019-03-20T21:27:54.926Z,6.69
2019-03-20T21:32:57.372Z,6.42
2019-03-20T21:38:05.312Z,6.42
2019-03-20T21:43:41.762Z,6.41
2019-03-20T21:48:44.183Z,6.31
2019-03-20T21:54:01.654Z,6.27
2019-03-20T21:59:09.836Z,6.21
2019-03-20T22:04:12.295Z,6.11
2019-03-20T22:09:14.765Z,6.05
2019-03-20T22:14:17.220Z,6.00
2019-03-20T22:19:31.386Z,6.03
2019-03-20T22:24:36.569Z,6.02
2019-03-20T22:29:39.065Z,5.88
2019-03-20T22:34:59.933Z,5.64
2019-03-20T22:40:14.739Z,5.69
2019-03-20T22:45:51.119Z,5.67
2019-03-20T22:51:08.587Z,5.53
2019-03-20T22:56:32.736Z,5.42
2019-03-20T23:01:38.002Z,5.28
2019-03-20T23:06:40.472Z,5.32
2019-03-20T23:11:42.949Z,5.31
2019-03-20T23:16:45.389Z,5.21
2019-03-20T23:21:47.870Z,5.08
2019-03-20T23:26:50.328Z,5.18
2019-03-20T23:31:52.827Z,5.30
2019-03-20T23:36:55.303Z,5.10
2019-03-20T23:41:57.782Z,5.11
2019-03-20T23:47:00.251Z,5.08
2019-03-20T23:52:02.743Z,5.00
2019-03-20T23:57:05.201Z,5.00
